createdAt,value
2023-04-16T00:00:03.951Z,1.92
2023-04-16T00:03:46.292Z,1.70
2023-04-16T00:07:28.387Z,1.50
2023-04-16T00:11:10.552Z,1.63
2023-04-16T00:14:52.770Z,1.35
2023-04-16T00:18:34.708Z,1.50
2023-04-16T00:22:16.618Z,1.85
2023-04-16T00:26:00.121Z,2.05
2023-04-16T00:29:42.271Z,1.75
2023-04-16T00:33:24.292Z,2.10
2023-04-16T00:37:06.212Z,1.75
2023-04-16T00:40:48.102Z,1.73
2023-04-16T00:44:30.532Z,1.88
2023-04-16T00:48:12.522Z,1.60
2023-04-16T00:51:54.414Z,1.63
2023-04-16T00:55:37.523Z,1.83
2023-04-16T00:59:19.904Z,2.03
2023-04-16T01:03:02.202Z,2.00
2023-04-16T01:06:44.396Z,1.80
2023-04-16T01:10:26.280Z,1.67
2023-04-16T01:14:08.251Z,1.70
2023-04-16T01:17:50.208Z,1.63
2023-04-16T01:21:33.451Z,1.90
2023-04-16T01:25:16.308Z,1.73
2023-04-16T01:28:58.921Z,2.00
2023-04-16T01:32:41.125Z,1.50
2023-04-16T01:36:23.096Z,1.63
2023-04-16T01:40:05.467Z,1.75
2023-04-16T01:43:47.395Z,1.50
2023-04-16T01:47:29.402Z,1.65
2023-04-16T01:51:11.452Z,1.80
2023-04-16T01:54:53.354Z,1.77
2023-04-16T01:58:35.916Z,2.35
2023-04-16T02:02:18.185Z,1.50
2023-04-16T02:06:01.245Z,1.77
2023-04-16T02:09:43.210Z,1.60
2023-04-16T02:13:26.124Z,1.85
2023-04-16T02:17:08.057Z,1.70
2023-04-16T02:20:49.965Z,1.52
2023-04-16T02:24:31.857Z,1.70
2023-04-16T02:28:15.671Z,1.70
2023-04-16T02:31:57.741Z,1.70
2023-04-16T02:35:40.877Z,1.60
2023-04-16T02:39:23.028Z,1.92
2023-04-16T02:43:04.939Z,1.50
2023-04-16T02:46:46.913Z,1.70
2023-04-16T02:50:28.827Z,1.90
2023-04-16T02:54:11.164Z,1.70
2023-04-16T02:57:53.399Z,1.77
2023-04-16T03:01:35.496Z,1.92
2023-04-16T03:05:17.749Z,1.70
2023-04-16T03:08:59.679Z,2.25
2023-04-16T03:12:41.568Z,1.73
2023-04-16T03:16:23.594Z,1.80
2023-04-16T03:20:06.402Z,1.85
2023-04-16T03:23:48.355Z,1.63
2023-04-16T03:27:30.415Z,1.52
2023-04-16T03:31:12.449Z,1.95
2023-04-16T03:34:54.450Z,1.80
2023-04-16T03:38:36.338Z,1.75
2023-04-16T03:42:18.331Z,1.70
2023-04-16T03:46:00.344Z,1.55
2023-04-16T03:49:42.288Z,1.55
2023-04-16T03:53:24.288Z,2.00
2023-04-16T03:57:06.212Z,1.90
2023-04-16T04:00:49.066Z,1.90
2023-04-16T04:04:31.085Z,1.67
2023-04-16T04:08:13.050Z,1.75
2023-04-16T04:11:55.006Z,1.70
2023-04-16T04:15:37.119Z,1.50
2023-04-16T04:19:19.008Z,1.60
2023-04-16T04:23:00.903Z,1.80
2023-04-16T04:26:42.835Z,1.60
2023-04-16T04:30:24.771Z,1.63
2023-04-16T04:34:06.656Z,2.05
2023-04-16T04:37:48.783Z,1.70
2023-04-16T04:41:30.921Z,1.60
2023-04-16T04:45:12.883Z,1.38
2023-04-16T04:48:54.787Z,1.77
2023-04-16T04:52:36.795Z,1.60
2023-04-16T04:56:18.728Z,1.40
2023-04-16T05:00:03.202Z,1.38
2023-04-16T05:03:45.240Z,1.25
2023-04-16T05:07:27.191Z,1.50
2023-04-16T05:11:09.106Z,1.75
2023-04-16T05:14:50.972Z,1.77
2023-04-16T05:18:33.454Z,1.58
2023-04-16T05:22:18.933Z,1.48
2023-04-16T05:26:00.897Z,1.60
2023-04-16T05:29:42.783Z,1.98
2023-04-16T05:33:24.721Z,1.52
2023-04-16T05:37:06.676Z,1.38
2023-04-16T05:40:48.564Z,1.60
2023-04-16T05:44:30.585Z,1.73
2023-04-16T05:48:13.812Z,1.92
2023-04-16T05:51:55.781Z,1.90
2023-04-16T05:55:37.765Z,1.95
2023-04-16T05:59:19.646Z,1.80
2023-04-16T06:03:03.133Z,1.92
2023-04-16T06:06:45.246Z,1.52
2023-04-16T06:10:27.245Z,1.50
2023-04-16T06:14:09.152Z,1.73
2023-04-16T06:17:51.271Z,1.88
2023-04-16T06:21:33.634Z,1.40
2023-04-16T06:25:17.665Z,1.80
2023-04-16T06:29:00.873Z,1.75
2023-04-16T06:32:43.493Z,1.63
2023-04-16T06:36:27.093Z,1.60
2023-04-16T06:40:09.480Z,1.38
2023-04-16T06:43:51.647Z,1.52
2023-04-16T06:47:33.561Z,1.70
2023-04-16T06:51:15.550Z,1.70
2023-04-16T06:54:57.460Z,1.55
2023-04-16T06:58:39.339Z,1.50
2023-04-16T07:02:21.397Z,1.85
2023-04-16T07:06:03.449Z,1.40
2023-04-16T07:09:45.342Z,1.83
2023-04-16T07:13:27.779Z,1.33
2023-04-16T07:17:09.727Z,1.50
2023-04-16T07:20:51.633Z,1.38
2023-04-16T07:24:33.648Z,1.23
2023-04-16T07:28:17.621Z,1.30
2023-04-16T07:31:59.635Z,1.50
2023-04-16T07:35:41.636Z,1.38
2023-04-16T07:39:23.616Z,1.20
2023-04-16T07:43:05.657Z,1.60
2023-04-16T07:46:47.876Z,1.10
2023-04-16T07:50:29.821Z,1.17
2023-04-16T07:54:11.751Z,0.98
2023-04-16T07:57:53.953Z,1.10
2023-04-16T08:01:36.104Z,1.23
2023-04-16T08:05:18.276Z,1.20
2023-04-16T08:09:00.200Z,1.08
2023-04-16T08:12:42.128Z,1.13
2023-04-16T08:16:24.259Z,1.00
2023-04-16T08:20:06.898Z,0.73
2023-04-16T08:23:48.843Z,0.70
2023-04-16T08:27:30.799Z,0.95
2023-04-16T08:31:12.743Z,0.88
2023-04-16T08:34:54.845Z,0.63
2023-04-16T08:38:36.765Z,0.70
2023-04-16T08:42:26.554Z,0.60
2023-04-16T08:46:09.692Z,0.60
2023-04-16T08:49:57.420Z,1.08
2023-04-16T08:53:49.574Z,0.70
2023-04-16T08:57:40.206Z,0.70
2023-04-16T09:01:22.910Z,0.70
2023-04-16T09:05:07.557Z,0.80
2023-04-16T09:08:49.918Z,0.70
2023-04-16T09:12:32.054Z,0.90
2023-04-16T09:16:14.945Z,0.88
2023-04-16T09:19:56.843Z,0.70
2023-04-16T09:23:40.118Z,0.82
2023-04-16T09:27:24.758Z,1.15
2023-04-16T09:31:13.081Z,0.70
2023-04-16T09:34:59.088Z,0.90
2023-04-16T09:38:51.533Z,1.00
2023-04-16T09:42:37.138Z,0.63
2023-04-16T09:46:19.065Z,0.80
2023-04-16T09:50:00.970Z,0.70
2023-04-16T09:53:42.996Z,0.75
2023-04-16T09:57:25.566Z,0.65
2023-04-16T10:01:18.640Z,0.73
2023-04-16T10:05:06.080Z,0.70
2023-04-16T10:08:53.327Z,0.50
2023-04-16T10:12:35.716Z,0.60
2023-04-16T10:16:18.270Z,0.65
2023-04-16T10:20:02.166Z,0.63
2023-04-16T10:23:44.646Z,0.93
2023-04-16T10:27:27.805Z,0.82
2023-04-16T10:31:10.107Z,0.73
2023-04-16T10:34:52.195Z,0.95
2023-04-16T10:38:35.288Z,1.20
2023-04-16T10:42:17.295Z,0.60
2023-04-16T10:46:17.557Z,0.70
2023-04-16T10:49:59.623Z,0.77
2023-04-16T10:53:42.122Z,0.50
2023-04-16T10:57:29.366Z,0.70
2023-04-16T11:01:13.588Z,0.60
2023-04-16T11:04:57.917Z,0.63
2023-04-16T11:08:53.311Z,0.80
2023-04-16T11:12:37.925Z,0.80
2023-04-16T11:16:20.280Z,0.50
2023-04-16T11:20:02.586Z,0.70
2023-04-16T11:23:52.938Z,0.77
2023-04-16T11:27:35.308Z,0.77
2023-04-16T11:31:17.392Z,0.70
2023-04-16T11:35:03.591Z,0.60
2023-04-16T11:38:47.085Z,0.70
2023-04-16T11:42:29.562Z,0.60
2023-04-16T11:46:20.541Z,0.70
2023-04-16T11:54:11.994Z,0.70
2023-04-16T11:57:54.238Z,0.70
2023-04-16T12:01:37.259Z,0.93
2023-04-16T12:05:35.266Z,0.63
2023-04-16T12:09:29.965Z,1.30
2023-04-16T12:13:15.760Z,0.95
2023-04-16T12:17:21.058Z,0.73
2023-04-16T12:21:05.861Z,0.77
2023-04-16T12:24:47.777Z,0.98
2023-04-16T12:28:31.885Z,0.60
2023-04-16T12:32:23.546Z,0.90
2023-04-16T12:36:19.297Z,0.65
2023-04-16T12:40:01.991Z,0.80
2023-04-16T12:43:43.880Z,0.75
2023-04-16T12:47:25.807Z,0.80
2023-04-16T12:51:07.760Z,0.63
2023-04-16T12:54:49.896Z,0.73
2023-04-16T12:58:31.800Z,0.80
2023-04-16T13:02:13.959Z,0.80
2023-04-16T13:05:57.005Z,0.68
2023-04-16T13:09:40.007Z,1.25
2023-04-16T13:13:21.981Z,0.73
2023-04-16T13:17:04.152Z,1.00
2023-04-16T13:20:46.099Z,0.65
2023-04-16T13:24:28.159Z,0.98
2023-04-16T13:28:10.101Z,0.90
2023-04-16T13:31:52.882Z,0.70
2023-04-16T13:35:34.929Z,0.80
2023-04-16T13:39:17.494Z,1.20
2023-04-16T13:42:59.379Z,1.10
2023-04-16T13:46:43.711Z,1.30
2023-04-16T13:50:25.820Z,1.00
2023-04-16T13:54:07.733Z,1.20
2023-04-16T13:57:50.248Z,0.90
2023-04-16T14:01:32.306Z,0.70
2023-04-16T14:05:14.427Z,0.98
2023-04-16T14:08:56.338Z,0.90
2023-04-16T14:12:39.094Z,0.82
2023-04-16T14:16:21.182Z,0.90
2023-04-16T14:20:05.089Z,0.90
2023-04-16T14:23:46.988Z,0.85
2023-04-16T14:27:30.594Z,0.80
2023-04-16T14:31:12.528Z,0.60
2023-04-16T14:34:54.421Z,0.75
2023-04-16T14:38:36.583Z,0.68
2023-04-16T14:42:18.617Z,0.60
2023-04-16T14:46:00.548Z,0.80
2023-04-16T14:49:42.529Z,0.60
2023-04-16T14:53:24.889Z,0.90
2023-04-16T14:57:06.799Z,0.85
2023-04-16T15:00:48.692Z,0.93
2023-04-16T15:04:30.931Z,0.75
2023-04-16T15:08:12.945Z,0.60
2023-04-16T15:11:54.960Z,0.50
2023-04-16T15:15:37.683Z,0.82
2023-04-16T15:19:19.813Z,0.60
2023-04-16T15:23:01.788Z,0.47
2023-04-16T15:26:43.829Z,0.77
2023-04-16T15:30:25.808Z,0.68
2023-04-16T15:34:07.771Z,0.65
2023-04-16T15:37:50.697Z,2.50
2023-04-16T15:41:32.788Z,0.73
2023-04-16T15:45:14.727Z,0.77
2023-04-16T15:48:56.627Z,2.05
2023-04-16T15:52:38.755Z,0.70
2023-04-16T15:56:20.675Z,0.73
2023-04-16T16:00:07.259Z,0.90
2023-04-16T16:03:49.553Z,0.50
2023-04-16T16:07:31.846Z,0.60
2023-04-16T16:11:13.789Z,1.15
2023-04-16T16:14:55.966Z,0.70
2023-04-16T16:18:38.052Z,1.42
2023-04-16T16:22:23.597Z,0.50
2023-04-16T16:26:06.340Z,0.52
2023-04-16T16:29:48.239Z,0.60
2023-04-16T16:33:31.032Z,0.70
2023-04-16T16:37:12.931Z,0.70
2023-04-16T16:40:54.805Z,0.60
2023-04-16T16:44:37.447Z,0.77
2023-04-16T16:48:19.379Z,0.85
2023-04-16T16:52:01.787Z,0.77
2023-04-16T16:55:44.546Z,0.55
2023-04-16T16:59:26.464Z,0.80
2023-04-16T17:03:09.266Z,0.60
2023-04-16T17:06:51.612Z,0.50
2023-04-16T17:10:33.578Z,0.55
2023-04-16T17:14:15.669Z,0.77
2023-04-16T17:17:57.621Z,0.80
2023-04-16T17:21:39.534Z,0.70
2023-04-16T17:25:21.545Z,0.70
2023-04-16T17:29:04.491Z,1.00
2023-04-16T17:32:46.637Z,0.70
2023-04-16T17:36:28.550Z,1.00
2023-04-16T17:40:12.665Z,0.80
2023-04-16T17:43:54.651Z,0.88
2023-04-16T17:47:36.640Z,0.82
2023-04-16T17:51:18.632Z,0.65
2023-04-16T17:55:01.625Z,0.88
2023-04-16T17:58:43.814Z,1.00
2023-04-16T18:02:25.971Z,1.73
2023-04-16T18:06:08.076Z,1.10
2023-04-16T18:09:50.003Z,5.78
2023-04-16T18:13:31.888Z,1.92
2023-04-16T18:17:13.795Z,2.40
2023-04-16T18:20:55.733Z,0.93
2023-04-16T18:24:37.635Z,1.80
2023-04-16T18:28:19.520Z,1.35
2023-04-16T18:32:04.454Z,2.28
2023-04-16T18:35:46.956Z,1.50
2023-04-16T18:39:28.898Z,1.13
2023-04-16T18:43:10.797Z,1.00
2023-04-16T18:46:52.720Z,1.20
2023-04-16T18:50:35.165Z,0.93
2023-04-16T18:54:17.214Z,1.50
2023-04-16T18:57:59.154Z,1.40
2023-04-16T19:01:41.397Z,1.60
2023-04-16T19:05:23.361Z,1.42
2023-04-16T19:09:05.266Z,1.80
2023-04-16T19:12:47.184Z,2.15
2023-04-16T19:16:29.666Z,1.63
2023-04-16T19:20:11.793Z,1.30
2023-04-16T19:23:54.023Z,1.92
2023-04-16T19:27:36.332Z,2.30
2023-04-16T19:31:18.263Z,1.40
2023-04-16T19:35:00.618Z,1.33
2023-04-16T19:38:42.532Z,1.45
2023-04-16T19:42:24.462Z,1.30
2023-04-16T19:46:06.413Z,1.83
2023-04-16T19:49:48.351Z,1.75
2023-04-16T19:53:30.388Z,1.40
2023-04-16T19:57:12.256Z,1.70
2023-04-16T20:00:54.154Z,2.28
2023-04-16T20:04:36.154Z,2.80
2023-04-16T20:08:18.068Z,1.55
2023-04-16T20:12:00.763Z,1.25
2023-04-16T20:15:42.635Z,1.30
2023-04-16T20:19:26.199Z,1.35
2023-04-16T20:23:08.058Z,1.95
2023-04-16T20:26:50.265Z,1.58
2023-04-16T20:30:38.671Z,1.23
2023-04-16T20:34:20.762Z,1.20
2023-04-16T20:38:02.664Z,1.58
2023-04-16T20:41:45.543Z,1.10
2023-04-16T20:45:38.299Z,1.27
2023-04-16T20:49:20.342Z,0.93
2023-04-16T20:53:02.228Z,1.08
2023-04-16T20:56:44.903Z,0.85
2023-04-16T21:00:27.123Z,1.50
2023-04-16T21:04:09.098Z,1.00
2023-04-16T21:07:52.369Z,1.30
2023-04-16T21:11:35.893Z,1.60
2023-04-16T21:15:17.811Z,1.00
2023-04-16T21:18:59.702Z,1.00
2023-04-16T21:22:41.758Z,1.40
2023-04-16T21:26:23.787Z,1.27
2023-04-16T21:30:06.219Z,1.20
2023-04-16T21:33:48.177Z,1.30
2023-04-16T21:37:30.050Z,1.10
2023-04-16T21:41:12.046Z,1.40
2023-04-16T21:44:53.959Z,1.10
2023-04-16T21:48:35.947Z,1.27
2023-04-16T21:52:20.770Z,1.40
2023-04-16T21:56:03.587Z,1.30
2023-04-16T21:59:45.490Z,1.15
2023-04-16T22:03:27.675Z,1.30
2023-04-16T22:07:09.941Z,1.35
2023-04-16T22:10:51.840Z,1.35
2023-04-16T22:14:39.214Z,1.10
2023-04-16T22:18:25.629Z,1.15
2023-04-16T22:22:07.581Z,0.82
2023-04-16T22:25:49.475Z,1.23
2023-04-16T22:29:31.512Z,1.10
2023-04-16T22:33:13.482Z,1.30
2023-04-16T22:36:56.348Z,1.20
2023-04-16T22:40:38.312Z,1.05
2023-04-16T22:44:20.296Z,1.30
2023-04-16T22:48:02.636Z,1.05
2023-04-16T22:51:44.933Z,1.40
2023-04-16T22:55:26.909Z,1.40
2023-04-16T22:59:08.967Z,1.40
2023-04-16T23:02:51.115Z,1.35
2023-04-16T23:06:33.040Z,0.90
2023-04-16T23:10:15.067Z,1.20
2023-04-16T23:13:57.239Z,1.25
2023-04-16T23:17:39.759Z,1.63
2023-04-16T23:21:21.918Z,1.10
2023-04-16T23:25:04.221Z,0.90
2023-04-16T23:28:49.085Z,1.00
2023-04-16T23:32:31.374Z,1.02
2023-04-16T23:36:14.540Z,0.60
2023-04-16T23:39:56.420Z,1.10
2023-04-16T23:43:40.719Z,0.90
2023-04-16T23:47:23.566Z,0.98
2023-04-16T23:51:05.756Z,1.10
2023-04-16T23:54:47.633Z,1.05
2023-04-16T23:58:29.577Z,1.40
